createdAt,value
2023-04-12T00:02:22.394Z,15.98
2023-04-12T00:04:55.507Z,18.25
2023-04-12T00:07:24.817Z,17.83
2023-04-12T00:09:51.692Z,17.65
2023-04-12T00:12:19.574Z,17.70
2023-04-12T00:14:47.292Z,22.13
2023-04-12T00:17:14.682Z,19.40
2023-04-12T00:19:45.027Z,21.85
2023-04-12T00:22:12.583Z,19.58
2023-04-12T00:24:40.851Z,19.60
2023-04-12T00:27:09.069Z,22.13
2023-04-12T00:29:36.233Z,20.90
2023-04-12T00:32:05.720Z,17.65
2023-04-12T00:37:01.384Z,20.27
2023-04-12T00:39:28.319Z,20.55
2023-04-12T00:41:57.069Z,18.23
2023-04-12T00:44:24.746Z,20.55
2023-04-12T00:46:52.025Z,20.27
2023-04-12T00:49:19.150Z,15.73
2023-04-12T00:51:46.511Z,14.80
2023-04-12T00:54:14.459Z,13.27
2023-04-12T00:56:41.790Z,16.88
2023-04-12T00:59:08.686Z,16.52
2023-04-12T01:01:41.426Z,17.40
2023-04-12T01:04:09.387Z,15.68
2023-04-12T01:07:01.757Z,15.45
2023-04-12T01:09:47.245Z,13.55
2023-04-12T01:12:29.650Z,12.02
2023-04-12T01:15:13.202Z,11.10
2023-04-12T01:18:09.829Z,11.38
2023-04-12T01:20:48.442Z,13.15
2023-04-12T01:23:29.885Z,14.50
2023-04-12T01:26:33.106Z,12.88
2023-04-12T01:29:04.797Z,12.95
2023-04-12T01:31:33.077Z,14.23
2023-04-12T01:34:03.359Z,12.57
2023-04-12T01:36:30.998Z,13.60
2023-04-12T01:38:58.302Z,11.65
2023-04-12T01:41:25.342Z,11.75
2023-04-12T01:43:52.497Z,11.95
2023-04-12T01:46:23.334Z,11.88
2023-04-12T01:48:53.596Z,9.98
2023-04-12T01:51:34.763Z,8.70
2023-04-12T01:54:12.171Z,9.18
2023-04-12T01:56:43.461Z,8.63
2023-04-12T01:59:14.934Z,10.00
2023-04-12T02:01:43.126Z,9.57
2023-04-12T02:04:11.764Z,9.15
2023-04-12T02:06:40.140Z,9.60
2023-04-12T02:09:07.315Z,11.00
2023-04-12T02:11:35.046Z,10.50
2023-04-12T02:14:02.256Z,9.38
2023-04-12T02:16:29.596Z,24.00
2023-04-12T02:18:57.525Z,11.55
2023-04-12T02:21:25.124Z,8.57
2023-04-12T02:23:52.284Z,9.52
2023-04-12T02:26:19.312Z,8.88
2023-04-12T02:28:46.471Z,8.40
2023-04-12T02:31:13.485Z,8.98
2023-04-12T02:33:41.278Z,9.35
2023-04-12T02:36:10.401Z,7.37
2023-04-12T02:38:37.575Z,8.63
2023-04-12T02:41:04.691Z,7.28
2023-04-12T02:43:33.229Z,8.30
2023-04-12T02:46:00.517Z,7.15
2023-04-12T02:48:27.758Z,7.45
2023-04-12T02:50:54.721Z,6.93
2023-04-12T02:53:21.898Z,7.65
2023-04-12T02:55:48.767Z,7.53
2023-04-12T02:58:16.690Z,8.88
2023-04-12T03:00:43.920Z,6.53
2023-04-12T03:03:11.342Z,6.68
2023-04-12T03:05:39.765Z,8.07
2023-04-12T03:08:06.967Z,6.22
2023-04-12T03:10:33.837Z,8.23
2023-04-12T03:13:01.049Z,5.80
2023-04-12T03:15:28.258Z,7.10
2023-04-12T03:17:55.614Z,5.68
2023-04-12T03:20:24.660Z,5.70
2023-04-12T03:25:18.785Z,4.95
2023-04-12T03:27:46.074Z,5.33
2023-04-12T03:30:13.434Z,4.20
2023-04-12T03:32:42.298Z,3.63
2023-04-12T03:35:10.252Z,4.88
2023-04-12T03:37:40.914Z,4.05
2023-04-12T03:40:08.650Z,5.63
2023-04-12T03:42:36.577Z,3.20
2023-04-12T03:45:03.808Z,3.83
2023-04-12T03:47:31.810Z,4.28
2023-04-12T03:50:11.373Z,4.07
2023-04-12T03:52:39.113Z,4.47
2023-04-12T03:55:07.916Z,5.15
2023-04-12T03:57:35.562Z,5.60
2023-04-12T04:00:02.853Z,6.20
2023-04-12T04:02:32.034Z,4.27
2023-04-12T04:04:59.376Z,5.90
2023-04-12T04:07:27.164Z,4.87
2023-04-12T04:09:55.338Z,3.87
2023-04-12T04:12:22.541Z,4.90
2023-04-12T04:14:49.405Z,5.57
2023-04-12T04:17:16.667Z,4.20
2023-04-12T04:19:43.533Z,5.77
2023-04-12T04:22:12.536Z,3.90
2023-04-12T04:24:40.230Z,4.30
2023-04-12T04:27:07.492Z,5.03
2023-04-12T04:29:34.490Z,8.07
2023-04-12T04:32:01.745Z,5.17
2023-04-12T04:34:28.719Z,5.17
2023-04-12T04:36:55.887Z,7.63
2023-04-12T04:39:23.081Z,6.37
2023-04-12T04:41:54.885Z,5.63
2023-04-12T04:44:22.464Z,6.63
2023-04-12T04:46:49.733Z,6.77
2023-04-12T04:49:16.684Z,5.70
2023-04-12T04:51:44.128Z,14.47
2023-04-12T04:54:11.404Z,7.97
2023-04-12T04:56:38.634Z,7.57
2023-04-12T04:59:05.555Z,108.90
2023-04-12T05:01:36.140Z,133.73
2023-04-12T05:04:04.276Z,71.27
2023-04-12T05:06:31.633Z,38.35
2023-04-12T05:08:58.724Z,13.27
2023-04-12T05:11:26.199Z,12.10
2023-04-12T05:13:53.519Z,10.45
2023-04-12T05:16:20.807Z,38.37
2023-04-12T05:18:47.723Z,28.03
2023-04-12T05:21:14.900Z,38.50
2023-04-12T05:23:46.849Z,87.60
2023-04-12T05:26:14.058Z,68.83
2023-04-12T05:28:41.351Z,84.17
2023-04-12T05:31:08.694Z,63.90
2023-04-12T05:33:36.890Z,47.83
2023-04-12T05:36:04.899Z,78.95
2023-04-12T05:38:31.876Z,43.67
2023-04-12T05:40:59.121Z,47.58
2023-04-12T05:43:26.127Z,65.77
2023-04-12T05:45:53.446Z,38.23
2023-04-12T05:48:20.531Z,29.10
2023-04-12T05:50:54.709Z,23.23
2023-04-12T05:53:22.106Z,29.63
2023-04-12T05:55:49.280Z,15.33
2023-04-12T05:58:16.178Z,18.50
2023-04-12T06:00:45.392Z,11.90
2023-04-12T06:03:12.602Z,13.82
2023-04-12T06:05:40.019Z,12.10
2023-04-12T06:08:08.669Z,17.50
2023-04-12T06:10:35.931Z,10.95
2023-04-12T06:13:02.865Z,17.00
2023-04-12T06:15:32.065Z,12.63
2023-04-12T06:18:00.558Z,13.02
2023-04-12T06:20:28.160Z,15.45
2023-04-12T06:22:55.185Z,20.55
2023-04-12T06:25:23.248Z,9.93
2023-04-12T06:27:50.601Z,11.35
2023-04-12T06:30:19.188Z,10.10
2023-04-12T06:32:46.257Z,10.30
2023-04-12T06:35:13.856Z,10.32
2023-04-12T06:37:40.751Z,12.23
2023-04-12T06:40:08.706Z,10.30
2023-04-12T06:42:36.382Z,18.13
2023-04-12T06:45:04.104Z,12.77
2023-04-12T06:47:32.673Z,12.57
2023-04-12T06:49:59.895Z,11.95
2023-04-12T06:52:27.466Z,14.03
2023-04-12T06:54:56.813Z,17.52
2023-04-12T06:59:51.582Z,28.93
2023-04-12T07:02:18.807Z,33.78
2023-04-12T07:04:46.408Z,38.97
2023-04-12T07:07:13.595Z,28.37
2023-04-12T07:09:40.883Z,21.30
2023-04-12T07:12:07.894Z,19.60
2023-04-12T07:14:35.114Z,16.05
2023-04-12T07:17:02.112Z,14.40
2023-04-12T07:19:31.406Z,17.30
2023-04-12T07:21:58.943Z,17.23
2023-04-12T07:24:26.229Z,17.02
2023-04-12T07:26:55.003Z,19.23
2023-04-12T07:29:22.463Z,15.98
2023-04-12T07:31:49.673Z,17.05
2023-04-12T07:34:17.197Z,22.03
2023-04-12T07:36:45.017Z,15.45
2023-04-12T07:39:12.682Z,17.77
2023-04-12T07:41:39.986Z,14.82
2023-04-12T07:44:07.233Z,13.82
2023-04-12T07:46:34.206Z,14.63
2023-04-12T07:49:01.656Z,13.75
2023-04-12T07:51:28.568Z,14.00
2023-04-12T07:53:55.928Z,12.25
2023-04-12T07:56:23.013Z,15.60
2023-04-12T07:58:50.301Z,15.73
2023-04-12T08:01:17.398Z,11.45
2023-04-12T08:03:44.626Z,12.48
2023-04-12T08:06:11.967Z,14.98
2023-04-12T08:08:39.259Z,15.02
2023-04-12T08:11:06.691Z,10.02
2023-04-12T08:13:35.250Z,9.15
2023-04-12T08:16:02.290Z,10.52
2023-04-12T08:18:29.882Z,9.55
2023-04-12T08:20:58.701Z,8.55
2023-04-12T08:23:26.268Z,10.90
2023-04-12T08:26:02.832Z,16.98
2023-04-12T08:28:31.152Z,12.07
2023-04-12T08:30:59.476Z,11.48
2023-04-12T08:33:27.416Z,9.48
2023-04-12T08:35:55.321Z,12.27
2023-04-12T08:38:30.773Z,12.20
2023-04-12T08:41:08.811Z,9.68
2023-04-12T08:43:38.154Z,12.63
2023-04-12T08:46:05.643Z,16.88
2023-04-12T08:48:33.555Z,10.93
2023-04-12T08:51:00.946Z,11.80
2023-04-12T08:53:28.257Z,10.43
2023-04-12T08:55:55.178Z,10.75
2023-04-12T08:58:23.277Z,12.10
2023-04-12T09:00:50.604Z,11.95
2023-04-12T09:03:18.218Z,9.45
2023-04-12T09:05:45.525Z,11.77
2023-04-12T09:08:13.017Z,12.65
2023-04-12T09:10:40.055Z,12.35
2023-04-12T09:13:07.450Z,16.08
2023-04-12T09:15:35.066Z,11.23
2023-04-12T09:18:10.604Z,11.05
2023-04-12T09:20:39.172Z,10.57
2023-04-12T09:23:22.601Z,10.25
2023-04-12T09:25:52.861Z,12.05
2023-04-12T09:28:28.030Z,9.85
2023-04-12T09:30:56.706Z,9.77
2023-04-12T09:33:38.484Z,9.80
2023-04-12T09:36:09.406Z,9.15
2023-04-12T09:38:37.305Z,11.63
2023-04-12T09:41:27.534Z,9.82
2023-04-12T09:43:54.906Z,10.60
2023-04-12T09:46:23.166Z,8.77
2023-04-12T09:48:52.699Z,10.20
2023-04-12T09:51:29.458Z,8.70
2023-04-12T09:53:59.967Z,9.98
2023-04-12T09:56:35.816Z,8.15
2023-04-12T09:59:07.264Z,8.18
2023-04-12T10:01:39.468Z,7.75
2023-04-12T10:04:08.775Z,7.55
2023-04-12T10:06:37.328Z,9.90
2023-04-12T10:09:05.586Z,7.50
2023-04-12T10:11:34.316Z,8.23
2023-04-12T10:14:07.095Z,7.43
2023-04-12T10:16:35.233Z,11.13
2023-04-12T10:19:04.112Z,11.68
2023-04-12T10:21:32.079Z,11.30
2023-04-12T10:23:59.797Z,7.13
2023-04-12T10:26:27.873Z,12.05
2023-04-12T10:29:25.543Z,6.18
2023-04-12T10:31:54.351Z,7.38
2023-04-12T10:34:31.466Z,9.25
2023-04-12T10:37:00.659Z,11.05
2023-04-12T10:39:41.543Z,7.93
2023-04-12T10:42:30.035Z,8.00
2023-04-12T10:45:25.623Z,11.00
2023-04-12T10:47:58.507Z,9.10
2023-04-12T10:50:32.914Z,6.93
2023-04-12T10:53:22.103Z,6.85
2023-04-12T10:55:49.315Z,9.15
2023-04-12T10:58:50.809Z,7.32
2023-04-12T11:01:18.928Z,7.50
2023-04-12T11:04:09.231Z,8.95
2023-04-12T11:07:11.819Z,7.05
2023-04-12T11:09:42.821Z,7.40
2023-04-12T11:12:11.104Z,8.85
2023-04-12T11:14:44.629Z,10.02
2023-04-12T11:17:15.044Z,10.10
2023-04-12T11:19:44.468Z,10.65
2023-04-12T11:22:14.375Z,10.63
2023-04-12T11:24:45.957Z,9.05
2023-04-12T11:27:12.961Z,11.00
2023-04-12T11:29:40.642Z,8.80
2023-04-12T11:32:12.966Z,13.48
2023-04-12T11:34:41.769Z,13.00
2023-04-12T11:37:09.654Z,13.95
2023-04-12T11:39:45.233Z,11.25
2023-04-12T11:42:17.572Z,16.25
2023-04-12T11:47:18.116Z,13.45
2023-04-12T11:52:21.763Z,11.18
2023-04-12T11:57:18.763Z,23.15
2023-04-12T11:59:47.734Z,14.75
2023-04-12T12:02:23.322Z,15.75
2023-04-12T12:04:52.469Z,14.73
2023-04-12T12:07:21.675Z,14.70
2023-04-12T12:09:50.716Z,12.25
2023-04-12T12:12:18.860Z,11.20
2023-04-12T12:14:48.916Z,13.32
2023-04-12T12:17:17.165Z,10.80
2023-04-12T12:19:45.800Z,13.23
2023-04-12T12:22:19.815Z,14.70
2023-04-12T12:24:48.162Z,10.77
2023-04-12T12:27:22.526Z,13.38
2023-04-12T12:29:55.247Z,16.55
2023-04-12T12:32:23.637Z,15.25
2023-04-12T12:34:53.564Z,14.52
2023-04-12T12:37:24.505Z,15.30
2023-04-12T12:40:14.086Z,22.58
2023-04-12T12:42:48.788Z,12.35
2023-04-12T12:45:17.691Z,11.43
2023-04-12T12:47:49.535Z,11.45
2023-04-12T12:50:18.704Z,12.20
2023-04-12T12:52:48.563Z,10.93
2023-04-12T12:55:17.227Z,13.43
2023-04-12T12:57:55.137Z,13.63
2023-04-12T13:00:29.520Z,11.15
2023-04-12T13:02:56.867Z,20.98
2023-04-12T13:05:24.520Z,14.38
2023-04-12T13:07:52.928Z,15.80
2023-04-12T13:10:20.558Z,21.05
2023-04-12T13:12:47.544Z,15.95
2023-04-12T13:17:45.056Z,13.10
2023-04-12T13:20:12.245Z,14.25
2023-04-12T13:22:39.160Z,13.27
2023-04-12T13:25:07.108Z,12.90
2023-04-12T13:27:34.004Z,13.98
2023-04-12T13:30:01.318Z,13.75
2023-04-12T13:32:28.331Z,15.10
2023-04-12T13:34:56.074Z,17.38
2023-04-12T13:37:23.164Z,15.05
2023-04-12T13:39:52.931Z,13.80
2023-04-12T13:42:20.282Z,16.27
2023-04-12T13:44:48.723Z,14.93
2023-04-12T13:47:19.108Z,14.00
2023-04-12T13:49:46.524Z,15.77
2023-04-12T13:52:13.563Z,11.35
2023-04-12T13:54:43.179Z,15.50
2023-04-12T13:57:10.538Z,14.50
2023-04-12T13:59:38.495Z,14.25
2023-04-12T14:02:05.592Z,14.18
2023-04-12T14:04:33.155Z,12.25
2023-04-12T14:07:00.165Z,13.00
2023-04-12T14:09:29.729Z,13.57
2023-04-12T14:14:27.411Z,11.32
2023-04-12T14:19:25.533Z,10.43
2023-04-12T14:21:52.776Z,12.32
2023-04-12T14:24:20.937Z,13.75
2023-04-12T14:26:50.307Z,13.93
2023-04-12T14:29:17.758Z,11.15
2023-04-12T14:31:44.640Z,26.45
2023-04-12T14:34:13.378Z,12.02
2023-04-12T14:36:40.770Z,19.65
2023-04-12T14:39:11.648Z,17.85
2023-04-12T14:41:40.727Z,15.75
2023-04-12T14:44:08.121Z,18.53
2023-04-12T14:46:35.091Z,16.60
2023-04-12T14:49:02.554Z,10.57
2023-04-12T14:51:29.914Z,127.85
2023-04-12T14:53:58.023Z,15.27
2023-04-12T14:56:29.218Z,15.55
2023-04-12T14:58:57.575Z,10.95
2023-04-12T15:01:25.800Z,19.08
2023-04-12T15:03:53.744Z,16.50
2023-04-12T15:06:27.316Z,20.50
2023-04-12T15:08:55.127Z,15.80
2023-04-12T15:11:26.737Z,20.63
2023-04-12T15:13:55.584Z,16.55
2023-04-12T15:16:23.453Z,12.70
2023-04-12T15:18:51.829Z,13.23
2023-04-12T15:21:19.177Z,15.05
2023-04-12T15:23:47.422Z,13.55
2023-04-12T15:26:14.571Z,16.80
2023-04-12T15:28:42.548Z,16.70
2023-04-12T15:31:09.876Z,14.45
2023-04-12T15:33:37.945Z,12.65
2023-04-12T15:36:05.502Z,18.27
2023-04-12T15:38:32.791Z,13.63
2023-04-12T15:41:01.041Z,22.23
2023-04-12T15:43:28.940Z,20.17
2023-04-12T15:45:56.494Z,17.88
2023-04-12T15:48:25.425Z,15.95
2023-04-12T15:50:53.776Z,14.60
2023-04-12T15:53:35.607Z,14.52
2023-04-12T15:56:05.142Z,15.48
2023-04-12T15:58:32.831Z,20.08
2023-04-12T16:00:59.741Z,14.35
2023-04-12T16:03:27.391Z,11.05
2023-04-12T16:05:54.948Z,12.40
2023-04-12T16:08:23.035Z,15.30
2023-04-12T16:10:50.843Z,30.63
2023-04-12T16:13:18.651Z,31.08
2023-04-12T16:15:46.378Z,14.18
2023-04-12T16:18:13.833Z,15.73
2023-04-12T16:20:41.123Z,12.93
2023-04-12T16:23:08.635Z,11.40
2023-04-12T16:25:36.270Z,15.07
2023-04-12T16:28:06.784Z,14.60
2023-04-12T16:30:35.157Z,21.50
2023-04-12T16:33:02.894Z,23.05
2023-04-12T16:35:29.883Z,25.08
2023-04-12T16:37:57.133Z,33.78
2023-04-12T16:40:24.715Z,23.65
2023-04-12T16:42:52.101Z,26.23
2023-04-12T16:45:19.827Z,26.15
2023-04-12T16:47:47.591Z,24.38
2023-04-12T16:50:15.517Z,28.75
2023-04-12T16:52:43.151Z,32.50
2023-04-12T16:55:13.522Z,23.77
2023-04-12T16:57:45.173Z,33.30
2023-04-12T17:00:19.587Z,27.50
2023-04-12T17:02:49.316Z,35.22
2023-04-12T17:05:18.377Z,45.88
2023-04-12T17:07:55.178Z,58.25
2023-04-12T17:10:23.660Z,63.58
2023-04-12T17:12:52.923Z,56.97
2023-04-12T17:15:25.309Z,46.67
2023-04-12T17:17:54.157Z,46.58
2023-04-12T17:20:23.172Z,37.35
2023-04-12T17:22:51.190Z,36.17
2023-04-12T17:25:19.864Z,35.35
2023-04-12T17:27:48.711Z,37.85
2023-04-12T17:30:17.692Z,39.85
2023-04-12T17:35:17.889Z,27.92
2023-04-12T17:37:45.706Z,28.08
2023-04-12T17:40:13.096Z,33.53
2023-04-12T17:42:41.918Z,35.85
2023-04-12T17:45:12.507Z,44.88
2023-04-12T17:47:42.952Z,68.38
2023-04-12T17:50:11.288Z,70.45
2023-04-12T17:52:38.755Z,61.58
2023-04-12T17:55:07.561Z,70.65
2023-04-12T17:57:34.980Z,84.47
2023-04-12T18:00:01.964Z,75.38
2023-04-12T18:02:29.330Z,82.30
2023-04-12T18:04:56.591Z,110.50
2023-04-12T18:07:24.139Z,108.13
2023-04-12T18:09:51.382Z,96.07
2023-04-12T18:12:18.780Z,97.47
2023-04-12T18:14:45.696Z,62.75
2023-04-12T18:17:12.907Z,103.15
2023-04-12T18:19:40.153Z,92.22
2023-04-12T18:22:07.426Z,114.85
2023-04-12T18:24:35.819Z,115.32
2023-04-12T18:29:32.908Z,122.00
2023-04-12T18:32:00.262Z,138.93
2023-04-12T18:34:27.622Z,174.73
2023-04-12T18:36:54.848Z,113.45
2023-04-12T18:39:22.232Z,107.00
2023-04-12T18:41:49.512Z,96.00
2023-04-12T18:44:19.292Z,86.90
2023-04-12T18:46:46.600Z,66.35
2023-04-12T18:49:14.527Z,65.65
2023-04-12T18:51:42.975Z,321.45
2023-04-12T18:54:13.187Z,220.35
2023-04-12T18:56:42.342Z,121.35
2023-04-12T18:59:11.954Z,146.35
2023-04-12T19:01:39.177Z,100.43
2023-04-12T19:04:06.435Z,124.20
2023-04-12T19:06:34.859Z,153.57
2023-04-12T19:09:02.331Z,163.73
2023-04-12T19:11:29.435Z,160.10
2023-04-12T19:13:56.665Z,129.70
2023-04-12T19:16:24.735Z,116.00
2023-04-12T19:18:51.835Z,99.80
2023-04-12T19:21:19.019Z,106.60
2023-04-12T19:23:45.935Z,123.83
2023-04-12T19:26:13.165Z,129.87
2023-04-12T19:28:40.110Z,136.30
2023-04-12T19:31:10.544Z,134.17
2023-04-12T19:33:37.795Z,124.33
2023-04-12T19:36:05.365Z,110.97
2023-04-12T19:38:32.205Z,106.60
2023-04-12T19:40:59.405Z,103.73
2023-04-12T19:43:26.272Z,93.47
2023-04-12T19:45:53.552Z,103.10
2023-04-12T19:48:20.754Z,94.90
2023-04-12T19:50:51.064Z,93.50
2023-04-12T19:53:18.293Z,121.67
2023-04-12T19:55:45.464Z,170.20
2023-04-12T19:58:13.623Z,161.87
2023-04-12T20:00:41.364Z,191.07
2023-04-12T20:03:09.414Z,180.40
2023-04-12T20:05:37.676Z,144.73
2023-04-12T20:08:04.711Z,106.60
2023-04-12T20:10:31.879Z,129.43
2023-04-12T20:12:58.823Z,101.77
2023-04-12T20:15:26.070Z,95.50
2023-04-12T20:17:53.311Z,77.93
2023-04-12T20:20:20.785Z,74.20
2023-04-12T20:22:51.873Z,77.50
2023-04-12T20:25:20.656Z,71.13
2023-04-12T20:27:52.041Z,69.20
2023-04-12T20:30:21.021Z,75.67
2023-04-12T20:32:54.655Z,72.93
2023-04-12T20:35:21.999Z,76.73
2023-04-12T20:37:51.019Z,76.03
2023-04-12T20:40:19.438Z,81.23
2023-04-12T20:42:46.925Z,77.37
2023-04-12T20:45:17.004Z,69.47
2023-04-12T20:47:43.904Z,56.30
2023-04-12T20:50:11.115Z,54.83
2023-04-12T20:52:38.190Z,53.93
2023-04-12T20:55:07.414Z,53.43
2023-04-12T20:57:34.731Z,59.13
2023-04-12T21:00:06.996Z,58.37
2023-04-12T21:02:34.212Z,55.63
2023-04-12T21:05:01.537Z,62.20
2023-04-12T21:07:28.440Z,68.03
2023-04-12T21:09:55.578Z,78.90
2023-04-12T21:12:22.475Z,78.47
2023-04-12T21:14:50.407Z,77.07
2023-04-12T21:17:22.441Z,72.73
2023-04-12T21:19:50.405Z,65.03
2023-04-12T21:22:17.363Z,60.27
2023-04-12T21:24:44.658Z,57.00
2023-04-12T21:27:11.534Z,53.83
2023-04-12T21:29:41.511Z,59.30
2023-04-12T21:32:09.652Z,58.63
2023-04-12T21:34:37.490Z,58.63
2023-04-12T21:37:04.688Z,54.77
2023-04-12T21:39:32.446Z,57.33
2023-04-12T21:41:59.330Z,54.37
2023-04-12T21:44:26.965Z,49.57
2023-04-12T21:46:53.884Z,46.17
2023-04-12T21:49:21.445Z,48.77
2023-04-12T21:51:49.320Z,47.43
2023-04-12T21:54:16.820Z,51.40
2023-04-12T21:56:43.767Z,44.47
2023-04-12T21:59:11.008Z,46.43
2023-04-12T22:01:38.135Z,48.53
2023-04-12T22:04:06.039Z,49.20
2023-04-12T22:06:33.013Z,49.23
2023-04-12T22:09:02.059Z,51.23
2023-04-12T22:11:29.962Z,49.15
2023-04-12T22:13:58.100Z,53.13
2023-04-12T22:16:25.236Z,51.83
2023-04-12T22:18:52.848Z,51.03
2023-04-12T22:21:19.877Z,48.63
2023-04-12T22:23:47.013Z,45.57
2023-04-12T22:26:14.037Z,43.37
2023-04-12T22:28:41.459Z,45.17
2023-04-12T22:31:08.824Z,41.87
2023-04-12T22:33:40.122Z,43.07
2023-04-12T22:36:07.332Z,45.93
2023-04-12T22:38:35.406Z,45.13
2023-04-12T22:41:02.505Z,47.37
2023-04-12T22:43:41.877Z,46.60
2023-04-12T22:46:16.239Z,50.17
2023-04-12T22:48:45.975Z,42.70
2023-04-12T22:51:12.912Z,42.10
2023-04-12T22:53:40.813Z,45.10
2023-04-12T22:56:11.915Z,41.63
2023-04-12T22:58:40.400Z,43.50
2023-04-12T23:01:07.626Z,48.08
2023-04-12T23:03:36.761Z,47.47
2023-04-12T23:06:05.513Z,43.92
2023-04-12T23:08:32.751Z,48.70
2023-04-12T23:11:04.705Z,49.20
2023-04-12T23:13:35.257Z,44.43
2023-04-12T23:16:03.526Z,42.97
2023-04-12T23:18:31.325Z,44.80
2023-04-12T23:20:58.218Z,44.20
2023-04-12T23:23:26.338Z,46.63
2023-04-12T23:25:53.284Z,48.70
2023-04-12T23:28:22.033Z,45.60
2023-04-12T23:30:51.031Z,48.83
2023-04-12T23:33:20.542Z,47.37
2023-04-12T23:35:58.654Z,44.17
2023-04-12T23:38:32.682Z,47.75
2023-04-12T23:41:04.539Z,42.27
2023-04-12T23:43:32.757Z,44.13
2023-04-12T23:46:00.399Z,45.40
2023-04-12T23:48:28.124Z,46.33
2023-04-12T23:50:55.153Z,42.93
2023-04-12T23:53:22.414Z,44.10
2023-04-12T23:55:56.059Z,45.30
2023-04-12T23:58:24.937Z,45.53
